Time;durP1;ratioP1;P1;durP2;ratioP2;P2;SDS_P1;SDS_P2;PMS_P1;PMS_P2;Temp;Humidity;BMP_temperature;BMP_pressure;BME280_temperature;BME280_humidity;BME280_pressure;Samples;Min_cycle;Max_cycle;Signal;HPM_P1;HPM_P2
2022/09/16 00:02:01;;;;;;;13.73;1.88;;;11.90;99.90;;;;;;6144234;23;20024;-67
2022/09/16 00:04:27;;;;;;;7.15;1.40;;;11.90;99.90;;;;;;6148769;23;20021;-67
2022/09/16 00:06:53;;;;;;;9.23;1.20;;;11.90;99.90;;;;;;6173728;23;20013;-67
2022/09/16 00:09:18;;;;;;;4.78;0.98;;;11.90;99.90;;;;;;6150727;23;20406;-67
2022/09/16 00:11:44;;;;;;;9.85;1.25;;;11.80;99.90;;;;;;6147391;23;20353;-66
2022/09/16 00:14:10;;;;;;;7.20;1.27;;;11.80;99.90;;;;;;6176720;23;20025;-67
2022/09/16 00:16:36;;;;;;;11.25;1.35;;;11.80;99.90;;;;;;6172234;23;20445;-67
2022/09/16 00:19:02;;;;;;;7.43;1.20;;;11.80;99.90;;;;;;6175104;23;20040;-67
2022/09/16 00:21:28;;;;;;;4.32;1.40;;;11.80;99.90;;;;;;6148435;23;20025;-67
2022/09/16 00:23:55;;;;;;;5.68;1.00;;;11.90;99.90;;;;;;6176642;23;20044;-67
2022/09/16 00:26:21;;;;;;;8.32;1.10;;;11.90;99.90;;;;;;6176294;23;20025;-66
2022/09/16 00:28:48;;;;;;;8.95;1.20;;;11.90;99.90;;;;;;6176490;23;20024;-67
2022/09/16 00:31:14;;;;;;;10.93;1.65;;;12.00;99.90;;;;;;6175155;23;20035;-67
2022/09/16 00:33:40;;;;;;;8.55;1.88;;;12.00;99.90;;;;;;6150532;23;20040;-67
2022/09/16 00:36:11;;;;;;;11.10;1.75;;;12.10;99.90;;;;;;6174250;23;20055;-68
2022/09/16 00:38:37;;;;;;;5.95;1.38;;;12.10;99.90;;;;;;6149344;23;20315;-66
2022/09/16 00:41:03;;;;;;;6.22;1.63;;;12.10;99.90;;;;;;6174583;23;20020;-67
2022/09/16 00:43:46;;;;;;;7.55;1.20;;;12.10;99.90;;;;;;6149718;23;20013;-66
2022/09/16 00:46:11;;;;;;;7.43;1.53;;;12.00;99.90;;;;;;6176851;23;20035;-66
2022/09/16 00:48:37;;;;;;;11.40;2.08;;;12.10;99.90;;;;;;6149947;23;20248;-66
2022/09/16 00:51:06;;;;;;;10.30;1.92;;;12.10;99.90;;;;;;6175174;23;20079;-66
2022/09/16 00:53:48;;;;;;;6.07;1.20;;;12.10;99.90;;;;;;6149712;23;20350;-68
2022/09/16 00:56:16;;;;;;;7.07;1.30;;;12.10;99.90;;;;;;6148433;23;20028;-68
2022/09/16 00:59:00;;;;;;;9.57;1.70;;;12.10;99.90;;;;;;6176655;23;20013;-68
2022/09/16 01:01:27;;;;;;;6.45;1.27;;;12.10;99.90;;;;;;6176908;23;20104;-67
2022/09/16 01:03:57;;;;;;;9.68;1.35;;;12.00;99.90;;;;;;6176304;23;20020;-66
2022/09/16 01:06:24;;;;;;;6.95;1.10;;;12.00;99.90;;;;;;6168610;23;20021;-67
2022/09/16 01:08:50;;;;;;;9.32;1.50;;;12.00;99.90;;;;;;6173611;23;20116;-67
2022/09/16 01:11:16;;;;;;;8.52;1.75;;;12.00;99.90;;;;;;6147691;23;20127;-67
2022/09/16 01:13:43;;;;;;;4.03;1.33;;;12.00;99.90;;;;;;6146383;23;20345;-67
2022/09/16 01:16:11;;;;;;;9.85;1.50;;;11.90;99.90;;;;;;6171964;23;20021;-67
2022/09/16 01:18:45;;;;;;;7.13;1.58;;;11.90;99.90;;;;;;6173085;23;20028;-67
2022/09/16 01:21:25;;;;;;;9.07;1.42;;;11.90;99.90;;;;;;6172733;23;20028;-67
2022/09/16 01:24:28;;;;;;;8.30;1.35;;;11.80;99.90;;;;;;6174270;23;20072;-67
2022/09/16 01:27:12;;;;;;;9.48;1.30;;;11.70;99.90;;;;;;6146216;23;20092;-66
2022/09/16 01:29:56;;;;;;;11.80;2.05;;;11.70;99.90;;;;;;6147332;23;20021;-67
2022/09/16 01:32:57;;;;;;;4.85;1.20;;;11.60;99.90;;;;;;6172074;23;20017;-66
2022/09/16 01:35:44;;;;;;;7.75;1.73;;;11.60;99.90;;;;;;6149560;23;20358;-67
2022/09/16 01:38:35;;;;;;;9.77;1.65;;;11.60;99.90;;;;;;6144996;23;20021;-66
2022/09/16 01:41:28;;;;;;;9.57;1.65;;;11.50;99.90;;;;;;6150821;23;20017;-67
2022/09/16 01:43:55;;;;;;;5.18;1.40;;;11.50;99.90;;;;;;6173598;23;20426;-67
2022/09/16 01:46:51;;;;;;;4.20;0.95;;;11.50;99.90;;;;;;6145522;23;20259;-67
2022/09/16 01:49:44;;;;;;;6.20;1.27;;;11.50;99.90;;;;;;6175900;23;20028;-67
2022/09/16 01:52:26;;;;;;;6.25;1.10;;;11.60;99.90;;;;;;6147742;23;20078;-67
2022/09/16 01:55:03;;;;;;;8.13;1.70;;;11.70;99.90;;;;;;6178041;23;20013;-67
2022/09/16 01:57:46;;;;;;;7.55;1.27;;;11.70;99.90;;;;;;6146801;23;20013;-67
2022/09/16 02:00:14;;;;;;;7.30;1.10;;;11.70;99.90;;;;;;6150119;23;20032;-67
2022/09/16 02:03:04;;;;;;;4.53;1.33;;;11.70;99.90;;;;;;6152799;23;20040;-66
2022/09/16 02:05:32;;;;;;;5.85;1.00;;;11.70;99.90;;;;;;6151103;23;20464;-66
2022/09/16 02:08:09;;;;;;;5.13;1.30;;;11.70;99.90;;;;;;6175789;23;20020;-67
2022/09/16 02:10:41;;;;;;;7.85;1.42;;;11.70;99.90;;;;;;6146953;23;20016;-67
2022/09/16 02:13:18;;;;;;;9.73;1.38;;;11.70;99.90;;;;;;6146799;23;20044;-67
2022/09/16 02:15:48;;;;;;;9.25;1.20;;;11.70;99.90;;;;;;6149031;23;20044;-67
2022/09/16 02:18:18;;;;;;;10.40;1.70;;;11.70;99.90;;;;;;6150047;23;20060;-67
2022/09/16 02:20:46;;;;;;;7.00;1.30;;;11.70;99.90;;;;;;6147064;23;20013;-67
2022/09/16 02:23:17;;;;;;;9.40;1.40;;;11.70;99.90;;;;;;6147316;23;20282;-67
2022/09/16 02:25:45;;;;;;;11.88;1.27;;;11.70;99.90;;;;;;6144580;23;20017;-66
2022/09/16 02:28:16;;;;;;;6.10;1.40;;;11.70;99.90;;;;;;6150122;23;20032;-66
2022/09/16 02:30:44;;;;;;;6.40;1.10;;;11.60;99.90;;;;;;6152534;23;20051;-66
2022/09/16 02:33:12;;;;;;;9.10;1.50;;;11.60;99.90;;;;;;6178066;23;20029;-67
2022/09/16 02:35:40;;;;;;;9.00;1.80;;;11.50;99.90;;;;;;6175554;23;20009;-66
2022/09/16 02:38:15;;;;;;;8.15;1.38;;;11.50;99.90;;;;;;6148590;23;20028;-67
2022/09/16 02:40:55;;;;;;;8.27;1.23;;;11.50;99.90;;;;;;6149355;23;20028;-67
2022/09/16 02:43:21;;;;;;;10.18;1.50;;;11.50;99.90;;;;;;6149096;23;20135;-67
2022/09/16 02:45:56;;;;;;;9.70;1.88;;;11.60;99.90;;;;;;6149194;23;20052;-67
2022/09/16 02:48:41;;;;;;;9.82;1.60;;;11.60;99.90;;;;;;6177855;23;20440;-66
2022/09/16 02:51:22;;;;;;;4.25;1.33;;;11.60;99.90;;;;;;6149721;23;20035;-67
2022/09/16 02:54:10;;;;;;;9.68;1.23;;;11.60;99.90;;;;;;6178031;23;20021;-66
2022/09/16 02:56:39;;;;;;;5.70;1.20;;;11.50;99.90;;;;;;6148938;23;20025;-66
2022/09/16 02:59:06;;;;;;;8.98;1.98;;;11.50;99.90;;;;;;6174649;23;20036;-66
2022/09/16 03:01:37;;;;;;;10.57;2.03;;;11.40;99.90;;;;;;6148102;23;20067;-66
2022/09/16 03:04:03;;;;;;;15.45;2.40;;;11.40;99.90;;;;;;6177132;23;20358;-67
2022/09/16 03:06:34;;;;;;;11.25;1.48;;;11.40;99.90;;;;;;6150423;23;20452;-67
2022/09/16 03:09:02;;;;;;;8.70;1.70;;;11.40;99.90;;;;;;6170084;23;20157;-66
2022/09/16 03:11:50;;;;;;;5.82;1.42;;;11.30;99.90;;;;;;6176237;23;20024;-67
2022/09/16 03:14:18;;;;;;;6.88;1.13;;;11.30;99.90;;;;;;6178987;23;20032;-67
2022/09/16 03:17:05;;;;;;;10.48;1.58;;;11.30;99.90;;;;;;6151253;23;20029;-67
2022/09/16 03:19:56;;;;;;;11.23;1.92;;;11.20;99.90;;;;;;6148999;23;20464;-67
2022/09/16 03:22:40;;;;;;;8.57;1.40;;;11.20;99.90;;;;;;6149180;23;20103;-67
2022/09/16 03:25:13;;;;;;;;;;;11.20;99.90;;;;;;6176714;23;20604;-67
2022/09/16 03:27:46;;;;;;;8.32;1.75;;;11.10;99.90;;;;;;6152261;23;19916;-67
2022/09/16 03:30:12;;;;;;;14.18;2.00;;;11.20;99.90;;;;;;6149741;23;20365;-67
2022/09/16 03:32:46;;;;;;;15.30;2.95;;;11.20;99.90;;;;;;6177428;23;20020;-66
2022/09/16 03:35:27;;;;;;;7.85;1.45;;;11.20;99.90;;;;;;6172115;23;20334;-67
2022/09/16 03:37:59;;;;;;;11.43;2.05;;;11.30;99.90;;;;;;6148176;23;20020;-67
2022/09/16 03:40:28;;;;;;;11.20;1.80;;;11.30;99.90;;;;;;6175705;23;20087;-67
2022/09/16 03:42:53;;;;;;;13.27;2.13;;;11.30;99.90;;;;;;6170894;23;20326;-66
2022/09/16 03:45:20;;;;;;;14.90;2.03;;;11.30;99.90;;;;;;6147143;23;20471;-67
2022/09/16 03:47:48;;;;;;;14.73;2.60;;;11.30;99.90;;;;;;6175587;23;20335;-66
2022/09/16 03:50:15;;;;;;;13.98;1.80;;;11.30;99.90;;;;;;6176369;23;20021;-67
2022/09/16 03:52:40;;;;;;;15.90;1.92;;;11.30;99.90;;;;;;6167665;23;20021;-66
2022/09/16 03:55:07;;;;;;;12.82;1.73;;;11.20;99.90;;;;;;6177924;23;20505;-66
2022/09/16 03:57:33;;;;;;;12.65;2.28;;;11.20;99.90;;;;;;6178041;23;20017;-66
2022/09/16 03:59:59;;;;;;;8.52;1.90;;;11.20;99.90;;;;;;6177041;23;20425;-67
2022/09/16 04:02:25;;;;;;;11.57;2.70;;;11.20;99.90;;;;;;6146930;23;20021;-68
2022/09/16 04:04:51;;;;;;;16.40;2.53;;;11.10;99.90;;;;;;6166966;23;20021;-68
2022/09/16 04:07:17;;;;;;;11.77;1.75;;;11.00;99.90;;;;;;6167481;23;20025;-68
2022/09/16 04:09:42;;;;;;;10.95;1.88;;;11.00;99.90;;;;;;6145541;23;20013;-68
2022/09/16 04:12:09;;;;;;;9.25;1.98;;;11.00;99.90;;;;;;6142243;23;20025;-67
2022/09/16 04:14:35;;;;;;;18.35;2.53;;;11.00;99.90;;;;;;6145891;23;20048;-68
2022/09/16 04:17:01;;;;;;;9.60;1.88;;;10.90;99.90;;;;;;6170101;23;20024;-68
2022/09/16 04:19:26;;;;;;;13.40;2.60;;;10.90;99.90;;;;;;6147599;23;20021;-68
2022/09/16 04:21:52;;;;;;;12.18;2.28;;;10.90;99.90;;;;;;6146937;23;20017;-67
2022/09/16 04:24:18;;;;;;;15.88;2.65;;;10.90;99.90;;;;;;6174220;23;20432;-66
2022/09/16 04:26:44;;;;;;;8.48;1.60;;;10.80;99.90;;;;;;6148711;23;20041;-67
2022/09/16 04:29:10;;;;;;;13.00;2.03;;;10.80;99.90;;;;;;6174643;23;20035;-67
2022/09/16 04:31:36;;;;;;;9.50;1.80;;;10.80;99.90;;;;;;6175601;23;20116;-67
2022/09/16 04:34:03;;;;;;;10.15;1.50;;;10.80;99.90;;;;;;6147580;23;20357;-67
2022/09/16 04:36:29;;;;;;;7.68;2.15;;;10.80;99.90;;;;;;6173979;23;20346;-67
2022/09/16 04:38:54;;;;;;;10.00;1.63;;;10.80;99.90;;;;;;6149731;23;20026;-66
2022/09/16 04:41:22;;;;;;;9.55;1.90;;;10.80;99.90;;;;;;6146022;23;20020;-66
2022/09/16 04:43:56;;;;;;;10.57;1.63;;;10.80;99.90;;;;;;6176965;23;20067;-66
2022/09/16 04:46:22;;;;;;;9.40;1.85;;;10.80;99.90;;;;;;6147880;23;20025;-64
2022/09/16 04:48:49;;;;;;;8.68;1.83;;;10.70;99.90;;;;;;6175716;23;20017;-65
2022/09/16 04:51:15;;;;;;;11.27;1.60;;;10.70;99.90;;;;;;6173917;23;20021;-64
2022/09/16 04:53:44;;;;;;;11.57;1.60;;;10.70;99.90;;;;;;6176726;23;20071;-65
2022/09/16 04:56:16;;;;;;;9.60;1.90;;;10.70;99.90;;;;;;6173916;23;20028;-64
2022/09/16 04:58:46;;;;;;;8.15;2.00;;;10.70;99.90;;;;;;6173751;23;20021;-65
2022/09/16 05:01:15;;;;;;;12.60;2.00;;;10.70;99.90;;;;;;6175395;23;20024;-65
2022/09/16 05:03:46;;;;;;;10.00;2.03;;;10.70;99.90;;;;;;6148653;23;20075;-64
2022/09/16 05:06:20;;;;;;;15.75;2.13;;;10.80;99.90;;;;;;6149372;23;20604;-65
2022/09/16 05:08:46;;;;;;;13.73;1.90;;;10.80;99.90;;;;;;6176425;23;20035;-65
2022/09/16 05:11:15;;;;;;;11.57;1.60;;;10.70;99.90;;;;;;6176038;23;20162;-65
2022/09/16 05:13:41;;;;;;;10.32;1.60;;;10.80;99.90;;;;;;6146018;23;20134;-65
2022/09/16 05:16:12;;;;;;;12.23;2.13;;;10.80;99.90;;;;;;6174920;23;20017;-66
2022/09/16 05:18:40;;;;;;;13.48;2.88;;;10.90;99.90;;;;;;6169560;23;20021;-65
2022/09/16 05:21:09;;;;;;;15.23;2.53;;;11.00;99.90;;;;;;6170739;23;20021;-65
2022/09/16 05:23:34;;;;;;;9.07;1.58;;;11.10;99.90;;;;;;6173010;23;20024;-66
2022/09/16 05:26:07;;;;;;;10.05;2.08;;;11.10;99.90;;;;;;6170683;23;20021;-65
2022/09/16 05:28:34;;;;;;;11.60;1.42;;;11.10;99.90;;;;;;6173576;23;20020;-65
2022/09/16 05:31:29;;;;;;;11.90;2.33;;;11.20;99.90;;;;;;6146102;23;20033;-66
2022/09/16 05:34:00;;;;;;;11.80;2.17;;;11.10;99.90;;;;;;6151337;23;20088;-66
2022/09/16 05:36:29;;;;;;;10.57;1.60;;;11.10;99.90;;;;;;6175519;23;20071;-65
2022/09/16 05:38:55;;;;;;;11.40;1.48;;;11.10;99.90;;;;;;6174137;23;20021;-64
2022/09/16 05:41:21;;;;;;;12.40;1.98;;;11.10;99.90;;;;;;6150272;23;20020;-65
2022/09/16 05:43:47;;;;;;;6.10;1.58;;;11.10;99.90;;;;;;6178191;23;20396;-64
2022/09/16 05:46:20;;;;;;;11.75;1.83;;;11.10;99.90;;;;;;6175532;23;20025;-66
2022/09/16 05:48:47;;;;;;;12.95;2.22;;;11.10;99.90;;;;;;6125388;23;20017;-66
2022/09/16 05:51:15;;;;;;;11.15;1.77;;;11.10;99.90;;;;;;6149352;23;20063;-65
2022/09/16 05:53:41;;;;;;;7.90;1.48;;;11.20;99.90;;;;;;6170856;23;20028;-65
2022/09/16 05:56:10;;;;;;;13.63;1.80;;;11.20;99.90;;;;;;6144489;23;20397;-65
2022/09/16 05:58:38;;;;;;;6.93;1.48;;;11.30;99.90;;;;;;6174475;23;20017;-65
2022/09/16 06:01:11;;;;;;;8.10;1.88;;;11.30;99.90;;;;;;6175393;23;20071;-66
2022/09/16 06:03:37;;;;;;;;;;;11.40;99.90;;;;;;6175085;23;20071;-65
2022/09/16 06:06:25;;;;;;;14.57;1.88;;;11.50;99.90;;;;;;6174224;23;19920;-65
2022/09/16 06:08:52;;;;;;;10.20;1.52;;;11.50;99.90;;;;;;6149034;23;20079;-65
2022/09/16 06:11:18;;;;;;;14.35;2.25;;;11.60;99.90;;;;;;6175035;23;20080;-65
2022/09/16 06:13:45;;;;;;;8.15;2.03;;;11.70;99.90;;;;;;6149819;23;20096;-64
2022/09/16 06:16:12;;;;;;;12.60;2.55;;;11.80;99.90;;;;;;6149559;23;20067;-65
2022/09/16 06:18:37;;;;;;;12.60;1.67;;;11.90;99.90;;;;;;6150739;23;20492;-64
2022/09/16 06:21:09;;;;;;;11.57;1.70;;;11.90;99.90;;;;;;6173157;23;20021;-65
2022/09/16 06:23:36;;;;;;;14.77;2.60;;;12.00;99.90;;;;;;6150658;23;20327;-64
2022/09/16 06:26:12;;;;;;;12.75;2.25;;;12.10;99.90;;;;;;6175875;23;20048;-66
2022/09/16 06:28:39;;;;;;;8.07;1.10;;;12.30;99.90;;;;;;6145813;23;20017;-65
2022/09/16 06:31:11;;;;;;;7.95;1.50;;;12.40;99.90;;;;;;6148739;23;20414;-65
2022/09/16 06:33:38;;;;;;;12.43;1.75;;;12.50;99.90;;;;;;6149714;23;20346;-66
2022/09/16 06:36:09;;;;;;;13.32;2.00;;;12.60;99.90;;;;;;6145308;23;20017;-67
2022/09/16 06:38:35;;;;;;;14.32;1.88;;;12.70;99.90;;;;;;6176013;23;20013;-67
2022/09/16 06:41:03;;;;;;;10.07;2.80;;;12.80;99.90;;;;;;6175988;23;20035;-67
2022/09/16 06:43:29;;;;;;;12.07;1.95;;;12.90;99.90;;;;;;6176765;23;20028;-66
2022/09/16 06:46:04;;;;;;;8.32;2.20;;;13.10;99.90;;;;;;6150681;23;20017;-66
2022/09/16 06:48:32;;;;;;;15.25;2.00;;;13.00;99.90;;;;;;6175516;23;20017;-67
2022/09/16 06:51:03;;;;;;;11.10;1.80;;;13.00;99.90;;;;;;6149372;23;20074;-66
2022/09/16 06:53:30;;;;;;;11.02;2.22;;;13.10;99.90;;;;;;6177825;23;20043;-66
2022/09/16 06:56:00;;;;;;;9.45;2.00;;;13.20;99.90;;;;;;6174914;23;20103;-66
2022/09/16 06:58:28;;;;;;;7.90;1.83;;;13.20;99.90;;;;;;6149807;23;20165;-66
2022/09/16 07:00:55;;;;;;;4.45;1.20;;;13.10;99.90;;;;;;6150521;23;20400;-67
2022/09/16 07:03:21;;;;;;;9.73;1.63;;;13.10;99.90;;;;;;6149208;23;20049;-66
2022/09/16 07:06:03;;;;;;;7.20;1.52;;;13.20;99.90;;;;;;6147553;23;20017;-66
2022/09/16 07:08:30;;;;;;;13.80;2.10;;;13.30;99.90;;;;;;6171984;23;20075;-66
2022/09/16 07:11:04;;;;;;;9.45;1.73;;;13.40;99.90;;;;;;6143768;23;20126;-67
2022/09/16 07:13:30;;;;;;;8.20;1.98;;;13.50;99.90;;;;;;6173535;23;20023;-69
2022/09/16 07:16:00;;;;;;;8.73;1.77;;;13.60;99.90;;;;;;6148148;23;20107;-70
2022/09/16 07:18:27;;;;;;;13.68;1.90;;;13.70;99.90;;;;;;6176363;23;20059;-71
2022/09/16 07:20:59;;;;;;;14.48;2.25;;;13.90;99.90;;;;;;6147961;23;20421;-70
2022/09/16 07:23:24;;;;;;;11.48;2.47;;;14.00;99.90;;;;;;6174970;23;20334;-69
2022/09/16 07:26:02;;;;;;;16.02;2.47;;;14.20;99.90;;;;;;6177930;23;20028;-69
2022/09/16 07:28:28;;;;;;;13.10;2.63;;;14.30;99.90;;;;;;6177895;23;20017;-68
2022/09/16 07:30:54;;;;;;;14.38;2.10;;;14.20;99.90;;;;;;6178380;23;20040;-69
2022/09/16 07:33:19;;;;;;;12.23;1.95;;;14.20;99.90;;;;;;6176055;23;20024;-69
2022/09/16 07:35:45;;;;;;;7.32;1.88;;;14.20;99.90;;;;;;6175825;23;20381;-68
2022/09/16 07:38:11;;;;;;;15.77;2.42;;;14.30;99.90;;;;;;6174783;23;20651;-69
2022/09/16 07:40:39;;;;;;;13.55;2.65;;;14.50;99.90;;;;;;6176756;23;20484;-68
2022/09/16 07:43:05;;;;;;;14.55;2.33;;;14.60;99.90;;;;;;6150988;23;20060;-68
2022/09/16 07:45:31;;;;;;;14.07;2.35;;;14.60;99.90;;;;;;6154505;23;20021;-68
2022/09/16 07:47:57;;;;;;;13.18;2.70;;;14.60;99.90;;;;;;6151052;23;20230;-69
2022/09/16 07:50:22;;;;;;;12.25;2.60;;;14.50;99.90;;;;;;6176117;23;20389;-69
2022/09/16 07:52:53;;;;;;;22.60;3.55;;;14.40;99.90;;;;;;6175932;23;20021;-69
2022/09/16 07:55:19;;;;;;;16.60;2.95;;;14.40;99.90;;;;;;6177276;23;20029;-69
2022/09/16 07:57:45;;;;;;;13.98;2.20;;;14.30;99.90;;;;;;6150803;23;20119;-69
2022/09/16 08:00:11;;;;;;;19.98;3.20;;;14.30;99.90;;;;;;6150543;23;20048;-69
2022/09/16 08:02:37;;;;;;;12.63;2.50;;;14.20;99.90;;;;;;6178075;23;20021;-69
2022/09/16 08:05:03;;;;;;;14.15;1.77;;;14.10;99.90;;;;;;6176797;23;20342;-69
2022/09/16 08:07:29;;;;;;;7.90;2.15;;;14.10;99.90;;;;;;6176555;23;20409;-70
2022/09/16 08:09:55;;;;;;;10.18;1.98;;;14.30;99.90;;;;;;6176065;23;20129;-69
2022/09/16 08:12:20;;;;;;;10.18;2.22;;;14.40;99.90;;;;;;6176444;23;20148;-69
2022/09/16 08:14:46;;;;;;;9.70;2.22;;;14.50;99.90;;;;;;6179251;23;20013;-69
2022/09/16 08:17:12;;;;;;;6.90;1.58;;;14.60;99.90;;;;;;6154009;23;20095;-69
2022/09/16 08:19:38;;;;;;;11.93;2.03;;;14.70;99.90;;;;;;6177678;23;20013;-69
2022/09/16 08:22:04;;;;;;;12.35;1.80;;;14.80;99.90;;;;;;6177815;23;20013;-69
2022/09/16 08:24:29;;;;;;;6.03;1.98;;;15.00;99.90;;;;;;6152812;23;20390;-70
2022/09/16 08:26:55;;;;;;;8.48;1.80;;;15.10;99.90;;;;;;6153186;23;20021;-70
2022/09/16 08:29:21;;;;;;;10.73;1.95;;;15.20;99.90;;;;;;6178628;23;20029;-70
2022/09/16 08:31:47;;;;;;;10.65;1.70;;;15.30;99.90;;;;;;6176893;23;20345;-69
2022/09/16 08:34:13;;;;;;;10.55;2.00;;;15.30;99.90;;;;;;6151047;23;20025;-69
2022/09/16 08:36:39;;;;;;;11.43;2.10;;;15.40;99.90;;;;;;6177205;23;20407;-68
2022/09/16 08:39:04;;;;;;;10.77;2.08;;;15.50;99.90;;;;;;6151099;23;20033;-69
2022/09/16 08:41:48;;;;;;;9.60;2.05;;;15.60;99.90;;;;;;6149891;23;20025;-69
2022/09/16 08:44:30;;;;;;;16.20;2.70;;;15.60;99.90;;;;;;6150740;23;20087;-69
2022/09/16 08:47:01;;;;;;;11.85;2.63;;;15.70;99.90;;;;;;6152332;23;20017;-69
2022/09/16 08:49:39;;;;;;;11.00;2.13;;;15.80;99.90;;;;;;6178764;23;20025;-69
2022/09/16 08:52:26;;;;;;;12.30;1.83;;;15.70;99.90;;;;;;6148598;23;20017;-70
2022/09/16 08:54:57;;;;;;;9.48;2.22;;;15.80;99.90;;;;;;6178374;23;20028;-69
2022/09/16 08:57:27;;;;;;;10.68;2.22;;;15.90;99.90;;;;;;6151135;23;20013;-69
2022/09/16 09:00:04;;;;;;;11.10;2.03;;;15.90;99.90;;;;;;6178116;23;20017;-70
2022/09/16 09:02:48;;;;;;;8.50;2.00;;;16.00;99.90;;;;;;6147627;23;20088;-70
2022/09/16 09:05:29;;;;;;;10.45;1.75;;;16.00;99.90;;;;;;6149172;23;20072;-72
2022/09/16 09:08:15;;;;;;;7.75;1.70;;;16.10;99.90;;;;;;6149601;23;20334;-72
2022/09/16 09:10:51;;;;;;;9.27;1.58;;;16.20;99.90;;;;;;6149562;23;20068;-72
2022/09/16 09:13:41;;;;;;;11.75;2.65;;;16.30;99.90;;;;;;6177435;23;20031;-72
2022/09/16 09:16:33;;;;;;;10.35;1.63;;;16.30;99.90;;;;;;6150373;23;20021;-72
2022/09/16 09:19:25;;;;;;;16.17;2.38;;;16.20;99.90;;;;;;6176615;23;20028;-72
2022/09/16 09:22:03;;;;;;;8.60;2.15;;;16.20;99.90;;;;;;6175184;23;20013;-72
2022/09/16 09:25:00;;;;;;;10.48;2.20;;;16.10;99.90;;;;;;6176635;23;20529;-72
2022/09/16 09:27:29;;;;;;;10.88;2.13;;;15.80;99.90;;;;;;6175623;23;20059;-74
2022/09/16 09:30:21;;;;;;;10.35;2.95;;;15.50;99.90;;;;;;6176004;23;20013;-74
2022/09/16 09:33:20;;;;;;;10.75;2.42;;;15.20;99.90;;;;;;6151751;23;20020;-72
2022/09/16 09:36:09;;;;;;;13.40;2.65;;;15.10;99.90;;;;;;6143526;23;20023;-73
2022/09/16 09:38:49;;;;;;;13.85;2.40;;;15.20;99.90;;;;;;6147465;23;20112;-76
2022/09/16 09:41:17;;;;;;;13.35;2.83;;;15.40;99.90;;;;;;6150888;23;20017;-75
2022/09/16 09:44:05;;;;;;;14.32;2.97;;;15.50;99.90;;;;;;6151808;23;20088;-75
2022/09/16 09:46:43;;;;;;;8.68;1.92;;;15.70;99.90;;;;;;6148663;23;20104;-75
2022/09/16 09:49:11;;;;;;;18.83;2.58;;;15.90;99.90;;;;;;6173498;23;20409;-75
2022/09/16 09:51:47;;;;;;;7.70;1.60;;;16.10;99.90;;;;;;6149321;23;20013;-77
2022/09/16 09:54:24;;;;;;;6.90;1.55;;;16.10;99.90;;;;;;6177757;23;20044;-76
2022/09/16 09:56:54;;;;;;;9.55;2.00;;;16.20;99.90;;;;;;6151696;23;20048;-76
2022/09/16 09:59:31;;;;;;;14.85;2.40;;;16.30;99.90;;;;;;6150334;23;20021;-76
2022/09/16 10:01:59;;;;;;;13.57;2.75;;;16.30;99.90;;;;;;6151664;23;20033;-76
2022/09/16 10:04:25;;;;;;;11.50;2.60;;;16.30;99.90;;;;;;6176210;23;20009;-77
2022/09/16 10:06:54;;;;;;;11.60;2.17;;;16.30;99.90;;;;;;6149459;23;20470;-77
2022/09/16 10:09:21;;;;;;;11.45;2.28;;;16.40;99.90;;;;;;6149471;23;20021;-76
2022/09/16 10:11:56;;;;;;;12.07;3.10;;;16.50;99.90;;;;;;6176027;23;20089;-76
2022/09/16 10:14:29;;;;;;;9.82;1.90;;;16.50;99.90;;;;;;6174808;23;20021;-77
2022/09/16 10:16:58;;;;;;;14.32;2.30;;;16.50;99.90;;;;;;6177421;23;20091;-77
2022/09/16 10:19:26;;;;;;;9.90;2.17;;;16.50;99.90;;;;;;6175612;23;20450;-80
2022/09/16 10:22:11;;;;;;;11.88;2.10;;;16.60;99.90;;;;;;6175409;23;20104;-81
2022/09/16 10:24:41;;;;;;;10.18;2.22;;;16.70;99.90;;;;;;6173701;23;20017;-83
2022/09/16 10:27:21;;;;;;;13.27;2.13;;;16.70;99.90;;;;;;6149297;23;20017;-78
2022/09/16 10:30:01;;;;;;;10.75;2.13;;;16.80;99.90;;;;;;6153488;23;20088;-77
2022/09/16 10:32:29;;;;;;;11.38;2.30;;;16.90;99.90;;;;;;6152820;23;20013;-82
2022/09/16 10:34:56;;;;;;;9.50;1.88;;;16.90;99.90;;;;;;6178618;23;20124;-74
2022/09/16 10:37:23;;;;;;;7.32;1.98;;;16.90;99.90;;;;;;6151500;23;20330;-77
2022/09/16 10:39:55;;;;;;;13.07;2.28;;;16.80;99.90;;;;;;6153753;23;20016;-77
2022/09/16 10:42:23;;;;;;;8.75;1.83;;;16.80;99.90;;;;;;6153513;23;20021;-77
2022/09/16 10:44:55;;;;;;;11.23;2.08;;;16.90;99.90;;;;;;6181360;23;20134;-77
2022/09/16 10:47:25;;;;;;;8.10;1.60;;;17.00;99.90;;;;;;6151183;23;20551;-75
2022/09/16 10:49:57;;;;;;;9.05;2.15;;;16.70;99.90;;;;;;6154455;23;20028;-74
2022/09/16 10:52:31;;;;;;;11.30;2.08;;;16.60;99.90;;;;;;6150816;23;20408;-74
2022/09/16 10:55:12;;;;;;;11.60;1.90;;;16.70;99.90;;;;;;6152798;23;20013;-75
2022/09/16 10:57:40;;;;;;;9.38;1.77;;;16.80;99.90;;;;;;6179886;23;20013;-74
2022/09/16 11:00:10;;;;;;;11.63;2.05;;;16.80;99.90;;;;;;6179115;23;20124;-75
2022/09/16 11:03:04;;;;;;;10.23;2.25;;;16.90;99.90;;;;;;6149441;23;20353;-76
2022/09/16 11:05:55;;;;;;;6.72;1.70;;;17.00;99.90;;;;;;6150059;23;20013;-76
2022/09/16 11:08:39;;;;;;;11.20;1.67;;;17.20;99.90;;;;;;6151919;23;20454;-76
2022/09/16 11:11:32;;;;;;;11.05;1.80;;;17.30;99.90;;;;;;6152792;23;20067;-74
2022/09/16 11:14:11;;;;;;;10.00;2.15;;;17.20;99.90;;;;;;6179833;23;20329;-75
2022/09/16 11:17:10;;;;;;;12.77;2.20;;;17.20;99.90;;;;;;6177697;23;20044;-74
2022/09/16 11:19:55;;;;;;;10.25;1.80;;;17.20;99.90;;;;;;6152665;23;20091;-75
2022/09/16 11:22:50;;;;;;;8.82;2.05;;;16.90;99.90;;;;;;6148800;23;20044;-74
2022/09/16 11:25:42;;;;;;;7.82;1.63;;;16.70;99.90;;;;;;6139581;23;20029;-75
2022/09/16 11:28:32;;;;;;;9.20;1.90;;;16.90;99.90;;;;;;6151129;23;20041;-73
2022/09/16 11:31:13;;;;;;;8.13;2.15;;;17.10;99.90;;;;;;6150513;23;20096;-73
2022/09/16 11:33:55;;;;;;;10.52;1.98;;;17.30;99.90;;;;;;6151388;23;20450;-73
2022/09/16 11:36:36;;;;;;;8.50;2.03;;;17.40;99.90;;;;;;6174414;23;20108;-75
2022/09/16 11:39:12;;;;;;;15.73;1.98;;;17.60;99.90;;;;;;6152345;23;20067;-74
2022/09/16 11:42:00;;;;;;;9.20;2.28;;;17.80;99.90;;;;;;6179200;23;20021;-74
2022/09/16 11:44:40;;;;;;;9.02;1.92;;;17.80;99.90;;;;;;6176218;23;20049;-72
2022/09/16 11:47:37;;;;;;;12.70;2.03;;;17.80;99.30;;;;;;6177686;23;20017;-74
2022/09/16 11:50:20;;;;;;;15.05;2.63;;;17.60;99.30;;;;;;6151857;23;20032;-75
2022/09/16 11:53:07;;;;;;;15.88;2.88;;;17.50;99.90;;;;;;6176788;23;20014;-75
2022/09/16 11:55:41;;;;;;;15.73;3.00;;;17.50;99.90;;;;;;6179098;23;20020;-73
2022/09/16 11:58:25;;;;;;;11.85;2.42;;;17.50;99.90;;;;;;6176296;23;20020;-74
2022/09/16 12:00:54;;;;;;;5.22;1.50;;;17.20;99.90;;;;;;6149980;23;20021;-75
2022/09/16 12:03:30;;;;;;;12.50;2.13;;;17.00;99.90;;;;;;6178621;23;20064;-73
2022/09/16 12:06:07;;;;;;;8.48;1.80;;;16.90;99.90;;;;;;6177917;23;20345;-73
2022/09/16 12:08:39;;;;;;;11.45;2.45;;;17.00;99.90;;;;;;6174909;23;20096;-73
2022/09/16 12:11:23;;;;;;;8.63;2.22;;;17.20;99.90;;;;;;6150445;23;20523;-73
2022/09/16 12:13:59;;;;;;;9.57;1.92;;;17.50;99.90;;;;;;6149459;23;20009;-73
2022/09/16 12:16:46;;;;;;;10.52;1.98;;;17.70;99.90;;;;;;6177550;23;20025;-72
2022/09/16 12:19:30;;;;;;;11.65;2.30;;;17.60;98.70;;;;;;6147723;23;20049;-72
2022/09/16 12:22:40;;;;;;;19.35;2.60;;;17.50;99.30;;;;;;6177611;23;20363;-73
2022/09/16 12:25:32;;;;;;;14.13;2.63;;;17.60;99.90;;;;;;6061223;23;20030;-71
2022/09/16 12:28:25;;;;;;;15.07;3.20;;;17.50;99.90;;;;;;6174604;23;20052;-72
2022/09/16 12:31:29;;;;;;;14.80;2.50;;;17.30;99.90;;;;;;6151654;23;20021;-74
2022/09/16 12:34:03;;;;;;;14.52;2.97;;;17.10;99.90;;;;;;6146565;23;20023;-72
2022/09/16 12:36:32;;;;;;;17.15;2.85;;;16.90;99.90;;;;;;6150593;23;20013;-72
2022/09/16 12:38:59;;;;;;;16.45;3.15;;;16.70;99.90;;;;;;6177211;23;20016;-73
2022/09/16 12:42:23;;;;;;;10.77;2.53;;;16.50;99.90;;;;;;6150346;23;20045;-72
2022/09/16 12:45:19;;;;;;;18.27;2.97;;;16.40;99.90;;;;;;6162164;23;20013;-73
2022/09/16 12:48:03;;;;;;;13.27;2.65;;;16.50;99.90;;;;;;6176226;23;20472;-75
2022/09/16 12:50:59;;;;;;;12.43;3.08;;;16.60;99.90;;;;;;6176137;23;20060;-73
2022/09/16 12:53:31;;;;;;;14.98;2.70;;;16.80;99.90;;;;;;6175686;23;20028;-75
2022/09/16 12:56:20;;;;;;;10.60;2.13;;;16.80;99.90;;;;;;6151703;23;20096;-75
2022/09/16 12:58:52;;;;;;;16.92;3.17;;;16.90;99.90;;;;;;6101868;23;20024;-75
2022/09/16 13:01:34;;;;;;;10.70;1.95;;;17.00;99.90;;;;;;6148427;23;20040;-75
2022/09/16 13:04:09;;;;;;;8.13;2.80;;;17.10;99.90;;;;;;6149831;23;20457;-75
2022/09/16 13:06:39;;;;;;;11.50;2.70;;;17.10;99.90;;;;;;6152438;23;20044;-75
2022/09/16 13:09:29;;;;;;;14.50;2.60;;;17.20;99.90;;;;;;6173554;23;20476;-75
2022/09/16 13:11:58;;;;;;;21.63;3.50;;;17.10;99.90;;;;;;6173989;23;20016;-73
2022/09/16 13:14:44;;;;;;;18.10;3.78;;;16.80;99.90;;;;;;6149443;23;20013;-72